QTR948 OTHH-WSSS
Flight info
| Callsign | QTR948 |
|---|---|
| Flight time | N/A |
| Altitude | 35000 |
| Route | KUPRO N300 NOLSU P307 TONVO/N0496F370 P307 KUNUS/N0491F390 P307 PARAR N571 BIKEN/N0485F410 N571 GUNIP R467 VKL A464 ARAMA LELIB3B |
| Aircraft | A359/H-SDE2E3GHIJ3J4J5LM1ORWXY/LB1D1 |
Departure
| Time | N/A |
|---|---|
| Airport | Hamad International Airport (OTHH) |
Arrival
| Time | 2026-05-04 13:26 |
|---|---|
| Airport | Singapore Changi Airport (WSSS) |
| Time | Latitude | Longitude | Altitude | Speed | Heading |
|---|---|---|---|---|---|
| 2026-05-04 08:35 | 19.41211 | 69.65230 | 38813 ft | 521 kts | 116° |
| 2026-05-04 08:35 | 19.39620 | 69.68688 | 38809 ft | 521 kts | 116° |
| 2026-05-04 08:35 | 19.36454 | 69.75565 | 38811 ft | 521 kts | 116° |
| 2026-05-04 08:37 | 19.25852 | 69.98540 | 38811 ft | 521 kts | 116° |
| 2026-05-04 08:38 | 19.22666 | 70.05427 | 38815 ft | 521 kts | 116° |
| 2026-05-04 08:38 | 19.18951 | 70.13449 | 38819 ft | 522 kts | 116° |
| 2026-05-04 08:40 | 19.06680 | 70.39860 | 38821 ft | 522 kts | 117° |
| 2026-05-04 08:41 | 19.03470 | 70.46750 | 38819 ft | 522 kts | 117° |
| 2026-05-04 08:41 | 19.00257 | 70.53638 | 38823 ft | 522 kts | 117° |
| 2026-05-04 08:42 | 18.97041 | 70.60523 | 38825 ft | 523 kts | 117° |
| 2026-05-04 08:42 | 18.93815 | 70.67423 | 38822 ft | 523 kts | 117° |
| 2026-05-04 08:43 | 18.90614 | 70.74260 | 38824 ft | 523 kts | 117° |
| 2026-05-04 08:43 | 18.87387 | 70.81145 | 38825 ft | 523 kts | 117° |
| 2026-05-04 08:44 | 18.84156 | 70.88031 | 38822 ft | 523 kts | 117° |
| 2026-05-04 08:46 | 18.71229 | 71.15501 | 38828 ft | 521 kts | 117° |
| 2026-05-04 08:46 | 18.67995 | 71.22354 | 38828 ft | 521 kts | 117° |
| 2026-05-04 08:47 | 18.64786 | 71.29146 | 38830 ft | 521 kts | 117° |
| 2026-05-04 08:47 | 18.61553 | 71.35981 | 38830 ft | 520 kts | 117° |
| 2026-05-04 08:48 | 18.58317 | 71.42813 | 38830 ft | 520 kts | 117° |
| 2026-05-04 08:48 | 18.55081 | 71.49639 | 38830 ft | 519 kts | 117° |
| 2026-05-04 08:49 | 18.51869 | 71.56407 | 38826 ft | 519 kts | 117° |
| 2026-05-04 08:50 | 18.40557 | 71.80179 | 38829 ft | 517 kts | 117° |
| 2026-05-04 08:51 | 18.37347 | 71.86906 | 38829 ft | 517 kts | 117° |
| 2026-05-04 08:51 | 18.34119 | 71.93665 | 38830 ft | 516 kts | 117° |
| 2026-05-04 08:52 | 18.30895 | 72.00409 | 38828 ft | 516 kts | 117° |
| 2026-05-04 08:52 | 18.27662 | 72.07164 | 38825 ft | 516 kts | 117° |
| 2026-05-04 08:54 | 18.14744 | 72.34077 | 38824 ft | 515 kts | 117° |
| 2026-05-04 08:55 | 18.11532 | 72.40752 | 38825 ft | 514 kts | 117° |
| 2026-05-04 08:55 | 18.08297 | 72.47467 | 38826 ft | 514 kts | 117° |
| 2026-05-04 09:01 | 17.74258 | 73.17680 | 38839 ft | 514 kts | 117° |
| 2026-05-04 09:01 | 17.70998 | 73.24364 | 38845 ft | 515 kts | 117° |
| 2026-05-04 09:02 | 17.67732 | 73.31047 | 38851 ft | 515 kts | 117° |
| 2026-05-04 09:02 | 17.64466 | 73.37724 | 38853 ft | 515 kts | 117° |
| 2026-05-04 09:03 | 17.61189 | 73.44416 | 38859 ft | 515 kts | 117° |
| 2026-05-04 09:03 | 17.57931 | 73.51062 | 38863 ft | 515 kts | 117° |
| 2026-05-04 09:04 | 17.54653 | 73.57744 | 38870 ft | 515 kts | 117° |
| 2026-05-04 09:04 | 17.51379 | 73.64409 | 38872 ft | 515 kts | 117° |
| 2026-05-04 09:05 | 17.48097 | 73.71086 | 38878 ft | 515 kts | 117° |
| 2026-05-04 09:05 | 17.44806 | 73.77771 | 38884 ft | 516 kts | 117° |
| 2026-05-04 09:06 | 17.41514 | 73.84452 | 38881 ft | 517 kts | 117° |
| 2026-05-04 09:08 | 17.28322 | 74.11162 | 38881 ft | 516 kts | 118° |
| 2026-05-04 09:08 | 17.25023 | 74.17822 | 38871 ft | 515 kts | 118° |
| 2026-05-04 09:09 | 17.21720 | 74.24483 | 38870 ft | 515 kts | 118° |
| 2026-05-04 09:09 | 17.18427 | 74.31134 | 38865 ft | 514 kts | 118° |
| 2026-05-04 09:10 | 17.15132 | 74.37772 | 38865 ft | 514 kts | 118° |
| 2026-05-04 09:10 | 17.11840 | 74.44395 | 38865 ft | 513 kts | 118° |
| 2026-05-04 09:11 | 17.08553 | 74.51002 | 38861 ft | 512 kts | 118° |
| 2026-05-04 09:11 | 17.05267 | 74.57604 | 38864 ft | 512 kts | 118° |
| 2026-05-04 09:12 | 17.01979 | 74.64205 | 38863 ft | 512 kts | 118° |
| 2026-05-04 09:14 | 16.88849 | 74.90494 | 38856 ft | 510 kts | 118° |
| 2026-05-04 09:14 | 16.85563 | 74.97057 | 38857 ft | 509 kts | 118° |
| 2026-05-04 09:15 | 16.82300 | 75.03567 | 38855 ft | 509 kts | 118° |
| 2026-05-04 09:15 | 16.79015 | 75.10115 | 38856 ft | 509 kts | 118° |
| 2026-05-04 09:17 | 16.64249 | 75.39471 | 38850 ft | 507 kts | 118° |
| 2026-05-04 09:18 | 16.60960 | 75.45992 | 38848 ft | 507 kts | 118° |
| 2026-05-04 09:18 | 16.57784 | 75.52547 | 38857 ft | 507 kts | 116° |
| 2026-05-04 09:19 | 16.54765 | 75.59201 | 38853 ft | 506 kts | 116° |
| 2026-05-04 09:19 | 16.51747 | 75.65831 | 38851 ft | 506 kts | 116° |
| 2026-05-04 09:20 | 16.48704 | 75.72429 | 38853 ft | 506 kts | 116° |
| 2026-05-04 09:20 | 16.45659 | 75.78990 | 38853 ft | 505 kts | 116° |
| 2026-05-04 09:21 | 16.42597 | 75.85576 | 38854 ft | 505 kts | 117° |
| 2026-05-04 09:21 | 16.39531 | 75.92171 | 38854 ft | 505 kts | 117° |
| 2026-05-04 09:22 | 16.36467 | 75.98756 | 38855 ft | 505 kts | 117° |
| 2026-05-04 09:22 | 16.33918 | 76.04217 | 38855 ft | 505 kts | 117° |
| 2026-05-04 09:23 | 16.30317 | 76.11847 | 38852 ft | 505 kts | 117° |
| 2026-05-04 09:23 | 16.27218 | 76.18400 | 38855 ft | 505 kts | 117° |
| 2026-05-04 09:25 | 16.15330 | 76.43542 | 38849 ft | 505 kts | 117° |
| 2026-05-04 09:26 | 16.12223 | 76.50101 | 38848 ft | 505 kts | 117° |
| 2026-05-04 09:26 | 16.09112 | 76.56660 | 38845 ft | 505 kts | 117° |
| 2026-05-04 09:27 | 16.06000 | 76.63215 | 38843 ft | 505 kts | 117° |
| 2026-05-04 09:27 | 16.02896 | 76.69745 | 38838 ft | 505 kts | 117° |
| 2026-05-04 09:28 | 15.99780 | 76.76295 | 38836 ft | 505 kts | 117° |
| 2026-05-04 09:28 | 15.96661 | 76.82849 | 38829 ft | 505 kts | 117° |
| 2026-05-04 09:29 | 15.93545 | 76.89388 | 38828 ft | 505 kts | 117° |
| 2026-05-04 09:29 | 15.90446 | 76.95884 | 38827 ft | 504 kts | 117° |
| 2026-05-04 09:30 | 15.87327 | 77.02418 | 38824 ft | 504 kts | 117° |
| 2026-05-04 09:30 | 15.84210 | 77.08939 | 38821 ft | 504 kts | 117° |
| 2026-05-04 09:31 | 15.81090 | 77.15460 | 38818 ft | 504 kts | 117° |
| 2026-05-04 09:31 | 15.77968 | 77.21981 | 38815 ft | 503 kts | 117° |
| 2026-05-04 09:32 | 15.74868 | 77.28452 | 38816 ft | 503 kts | 117° |
| 2026-05-04 09:34 | 15.62451 | 77.54478 | 38810 ft | 503 kts | 117° |
| 2026-05-04 09:34 | 15.59371 | 77.60936 | 38815 ft | 503 kts | 117° |
| 2026-05-04 09:35 | 15.56264 | 77.67444 | 38814 ft | 503 kts | 117° |
| 2026-05-04 09:35 | 15.53157 | 77.73945 | 38816 ft | 502 kts | 118° |
| 2026-05-04 09:37 | 15.40733 | 77.99881 | 38815 ft | 503 kts | 118° |
| 2026-05-04 09:38 | 15.37621 | 78.06364 | 38813 ft | 503 kts | 118° |
| 2026-05-04 09:38 | 15.34498 | 78.12860 | 38805 ft | 503 kts | 118° |
| 2026-05-04 09:39 | 15.31357 | 78.19292 | 38800 ft | 504 kts | 118° |
| 2026-05-04 09:39 | 15.28180 | 78.25763 | 38790 ft | 504 kts | 118° |
| 2026-05-04 09:40 | 15.25008 | 78.32236 | 38785 ft | 504 kts | 118° |
| 2026-05-04 09:40 | 15.21831 | 78.38721 | 38776 ft | 504 kts | 118° |
| 2026-05-04 09:42 | 15.09121 | 78.64626 | 38761 ft | 504 kts | 118° |
| 2026-05-04 09:43 | 15.05935 | 78.71102 | 38759 ft | 505 kts | 118° |
| 2026-05-04 09:43 | 15.02750 | 78.77575 | 38752 ft | 504 kts | 118° |
| 2026-05-04 09:44 | 14.99564 | 78.84043 | 38748 ft | 504 kts | 118° |
| 2026-05-04 09:46 | 14.86854 | 79.09789 | 38746 ft | 503 kts | 118° |
| 2026-05-04 09:46 | 14.83674 | 79.16217 | 38743 ft | 502 kts | 118° |
| 2026-05-04 09:47 | 14.80491 | 79.22644 | 38730 ft | 502 kts | 118° |
| 2026-05-04 09:49 | 14.67775 | 79.48271 | 38725 ft | 500 kts | 119° |
| 2026-05-04 09:51 | 14.56676 | 79.70567 | 38732 ft | 499 kts | 119° |
| 2026-05-04 09:51 | 14.53494 | 79.76947 | 38730 ft | 500 kts | 119° |
| 2026-05-04 09:52 | 14.50308 | 79.83330 | 38740 ft | 500 kts | 119° |
| 2026-05-04 09:52 | 14.47119 | 79.89715 | 38740 ft | 500 kts | 119° |
| 2026-05-04 09:53 | 14.43950 | 79.96053 | 38742 ft | 500 kts | 119° |
| 2026-05-04 09:53 | 14.40756 | 80.02437 | 38743 ft | 500 kts | 119° |
| 2026-05-04 09:54 | 14.37556 | 80.08825 | 38741 ft | 501 kts | 119° |
| 2026-05-04 09:54 | 14.34356 | 80.15210 | 38740 ft | 501 kts | 120° |
| 2026-05-04 09:55 | 14.31148 | 80.21606 | 38747 ft | 501 kts | 120° |
| 2026-05-04 09:55 | 14.27962 | 80.27951 | 38739 ft | 501 kts | 120° |
| 2026-05-04 09:56 | 14.24752 | 80.34340 | 38750 ft | 501 kts | 120° |
| 2026-05-04 09:56 | 14.21544 | 80.40721 | 38748 ft | 501 kts | 120° |
| 2026-05-04 09:57 | 14.18333 | 80.47101 | 38745 ft | 501 kts | 120° |
| 2026-05-04 09:57 | 14.15119 | 80.53483 | 38751 ft | 501 kts | 120° |
| 2026-05-04 09:58 | 14.11903 | 80.59864 | 38750 ft | 501 kts | 120° |
| 2026-05-04 09:58 | 14.08709 | 80.66195 | 38752 ft | 501 kts | 120° |
| 2026-05-04 10:00 | 13.95940 | 80.91707 | 38752 ft | 501 kts | 118° |
| 2026-05-04 10:04 | 13.74143 | 81.36521 | 38766 ft | 501 kts | 119° |
| 2026-05-04 10:04 | 13.71008 | 81.42932 | 38767 ft | 501 kts | 119° |
| 2026-05-04 10:05 | 13.67897 | 81.49306 | 38767 ft | 501 kts | 119° |
| 2026-05-04 10:05 | 13.64771 | 81.55711 | 38770 ft | 502 kts | 119° |
| 2026-05-04 10:06 | 13.61634 | 81.62133 | 38768 ft | 502 kts | 119° |
| 2026-05-04 10:06 | 13.58506 | 81.68531 | 38777 ft | 502 kts | 119° |
| 2026-05-04 10:08 | 13.47540 | 81.90927 | 38775 ft | 500 kts | 119° |
| 2026-05-04 10:08 | 13.44405 | 81.97317 | 38778 ft | 500 kts | 119° |
| 2026-05-04 10:09 | 13.41292 | 82.03658 | 38778 ft | 500 kts | 119° |
| 2026-05-04 10:09 | 13.38156 | 82.10041 | 38782 ft | 499 kts | 119° |
| 2026-05-04 10:10 | 13.35559 | 82.15325 | 38782 ft | 498 kts | 119° |
| 2026-05-04 10:10 | 13.32432 | 82.21679 | 38780 ft | 498 kts | 119° |
| 2026-05-04 10:11 | 13.29313 | 82.28015 | 38783 ft | 497 kts | 119° |
| 2026-05-04 10:11 | 13.26189 | 82.34355 | 38785 ft | 496 kts | 119° |
| 2026-05-04 10:12 | 13.23075 | 82.40672 | 38789 ft | 496 kts | 119° |
| 2026-05-04 10:12 | 13.19960 | 82.46984 | 38791 ft | 495 kts | 119° |
| 2026-05-04 10:13 | 13.16850 | 82.53280 | 38793 ft | 495 kts | 119° |
| 2026-05-04 10:13 | 13.13733 | 82.59587 | 38793 ft | 494 kts | 119° |
| 2026-05-04 10:14 | 13.10644 | 82.65832 | 38791 ft | 494 kts | 119° |
| 2026-05-04 10:16 | 12.98194 | 82.90958 | 38795 ft | 493 kts | 118° |
| 2026-05-04 10:16 | 12.95086 | 82.97220 | 38797 ft | 493 kts | 118° |
| 2026-05-04 10:17 | 12.91996 | 83.03439 | 38803 ft | 492 kts | 118° |
| 2026-05-04 10:19 | 12.79561 | 83.28426 | 38806 ft | 491 kts | 118° |
| 2026-05-04 10:19 | 12.76476 | 83.34614 | 38796 ft | 491 kts | 118° |
| 2026-05-04 10:20 | 12.73371 | 83.40837 | 38805 ft | 490 kts | 118° |
| 2026-05-04 10:20 | 12.70263 | 83.47063 | 38805 ft | 490 kts | 118° |
| 2026-05-04 10:21 | 12.67157 | 83.53279 | 38805 ft | 490 kts | 118° |
| 2026-05-04 10:21 | 12.64070 | 83.59511 | 38806 ft | 490 kts | 118° |
| 2026-05-04 10:22 | 12.59588 | 83.68891 | 38807 ft | 490 kts | 117° |
| 2026-05-04 10:23 | 12.56585 | 83.75168 | 38801 ft | 490 kts | 118° |
| 2026-05-04 10:25 | 12.44503 | 84.00240 | 38806 ft | 491 kts | 118° |
| 2026-05-04 10:25 | 12.41492 | 84.06475 | 38801 ft | 492 kts | 118° |
| 2026-05-04 10:26 | 12.38454 | 84.12764 | 38809 ft | 492 kts | 118° |
| 2026-05-04 10:26 | 12.35421 | 84.19035 | 38803 ft | 492 kts | 118° |
| 2026-05-04 10:27 | 12.32384 | 84.25311 | 38804 ft | 492 kts | 118° |
| 2026-05-04 10:27 | 12.29340 | 84.31598 | 38805 ft | 492 kts | 118° |
| 2026-05-04 10:28 | 12.26298 | 84.37875 | 38804 ft | 493 kts | 118° |
| 2026-05-04 10:28 | 12.23272 | 84.44115 | 38807 ft | 493 kts | 118° |
| 2026-05-04 10:29 | 12.20222 | 84.50401 | 38811 ft | 493 kts | 118° |
| 2026-05-04 10:29 | 12.17172 | 84.56681 | 38808 ft | 493 kts | 118° |
| 2026-05-04 10:30 | 12.14119 | 84.62965 | 38808 ft | 493 kts | 118° |
| 2026-05-04 10:30 | 12.11067 | 84.69241 | 38814 ft | 493 kts | 118° |
| 2026-05-04 10:31 | 12.08010 | 84.75523 | 38809 ft | 494 kts | 118° |
| 2026-05-04 10:32 | 11.97293 | 84.97514 | 38813 ft | 494 kts | 118° |
| 2026-05-04 10:33 | 11.94226 | 85.03798 | 38811 ft | 494 kts | 118° |
| 2026-05-04 10:33 | 11.91155 | 85.10084 | 38814 ft | 494 kts | 118° |
| 2026-05-04 10:34 | 11.88100 | 85.16335 | 38813 ft | 494 kts | 118° |
| 2026-05-04 10:34 | 11.85026 | 85.22619 | 38813 ft | 494 kts | 118° |
| 2026-05-04 10:35 | 11.81949 | 85.28907 | 38812 ft | 494 kts | 118° |
| 2026-05-04 10:35 | 11.78875 | 85.35183 | 38816 ft | 494 kts | 118° |
| 2026-05-04 10:36 | 11.75802 | 85.41454 | 38814 ft | 494 kts | 118° |
| 2026-05-04 10:36 | 11.72722 | 85.47734 | 38814 ft | 494 kts | 118° |
| 2026-05-04 10:37 | 11.69664 | 85.53966 | 38816 ft | 494 kts | 118° |
| 2026-05-04 10:37 | 11.66581 | 85.60245 | 38816 ft | 494 kts | 118° |
| 2026-05-04 10:39 | 11.55784 | 85.82199 | 38821 ft | 495 kts | 118° |
| 2026-05-04 10:40 | 11.52694 | 85.88472 | 38819 ft | 495 kts | 118° |
| 2026-05-04 10:40 | 11.49598 | 85.94754 | 38821 ft | 495 kts | 118° |
| 2026-05-04 10:41 | 11.46504 | 86.01029 | 38817 ft | 496 kts | 118° |
| 2026-05-04 10:41 | 11.43403 | 86.07312 | 38817 ft | 496 kts | 118° |
| 2026-05-04 10:42 | 11.40321 | 86.13553 | 38819 ft | 496 kts | 118° |
| 2026-05-04 10:42 | 11.37218 | 86.19835 | 38821 ft | 496 kts | 118° |
| 2026-05-04 10:43 | 11.34113 | 86.26114 | 38823 ft | 496 kts | 118° |
| 2026-05-04 10:45 | 11.21667 | 86.51244 | 38823 ft | 496 kts | 118° |
| 2026-05-04 10:45 | 11.18552 | 86.57524 | 38822 ft | 496 kts | 118° |
| 2026-05-04 10:46 | 11.15441 | 86.63791 | 38822 ft | 496 kts | 118° |
| 2026-05-04 10:46 | 11.12324 | 86.70067 | 38824 ft | 496 kts | 118° |
| 2026-05-04 10:47 | 11.09209 | 86.76335 | 38821 ft | 496 kts | 118° |
| 2026-05-04 10:47 | 11.06115 | 86.82556 | 38820 ft | 495 kts | 118° |
| 2026-05-04 10:49 | 10.93678 | 87.07526 | 38829 ft | 493 kts | 118° |
| 2026-05-04 10:50 | 10.90570 | 87.13758 | 38828 ft | 493 kts | 118° |
| 2026-05-04 10:52 | 10.78198 | 87.38523 | 38828 ft | 491 kts | 118° |
| 2026-05-04 10:52 | 10.75102 | 87.44710 | 38827 ft | 490 kts | 118° |
| 2026-05-04 10:54 | 10.63226 | 87.68409 | 38827 ft | 492 kts | 118° |
| 2026-05-04 10:56 | 10.50769 | 87.93212 | 38831 ft | 495 kts | 118° |
| 2026-05-04 10:57 | 10.47636 | 87.99441 | 38831 ft | 495 kts | 118° |
| 2026-05-04 10:57 | 10.44499 | 88.05673 | 38839 ft | 495 kts | 118° |
| 2026-05-04 10:58 | 10.41361 | 88.11906 | 38834 ft | 495 kts | 118° |
| 2026-05-04 10:58 | 10.38225 | 88.18129 | 38829 ft | 495 kts | 118° |
| 2026-05-04 10:59 | 10.35084 | 88.24360 | 38833 ft | 495 kts | 118° |
| 2026-05-04 10:59 | 10.31946 | 88.30580 | 38837 ft | 495 kts | 118° |
| 2026-05-04 11:00 | 10.28807 | 88.36800 | 38837 ft | 494 kts | 118° |
| 2026-05-04 11:01 | 10.17956 | 88.58535 | 39341 ft | 492 kts | 116° |
| 2026-05-04 11:02 | 10.16529 | 88.61693 | 39569 ft | 491 kts | 116° |
| 2026-05-04 11:02 | 10.15121 | 88.64847 | 39774 ft | 490 kts | 115° |
| 2026-05-04 11:05 | 9.95199 | 89.08388 | 40840 ft | 486 kts | 116° |
| 2026-05-04 11:06 | 9.92340 | 89.14601 | 40840 ft | 486 kts | 116° |
| 2026-05-04 11:06 | 9.89476 | 89.20819 | 40839 ft | 486 kts | 116° |
| 2026-05-04 11:10 | 9.69443 | 89.64222 | 40844 ft | 485 kts | 116° |
| 2026-05-04 11:12 | 9.57990 | 89.88960 | 40843 ft | 485 kts | 116° |
| 2026-05-04 11:12 | 9.55137 | 89.95113 | 40840 ft | 485 kts | 116° |
| 2026-05-04 11:13 | 9.52261 | 90.01313 | 40841 ft | 485 kts | 116° |
| 2026-05-04 11:13 | 9.49391 | 90.07496 | 40848 ft | 485 kts | 116° |
| 2026-05-04 11:14 | 9.48906 | 90.08540 | 40847 ft | 485 kts | 116° |
| 2026-05-04 11:16 | 9.35010 | 90.38430 | 40848 ft | 487 kts | 116° |
| 2026-05-04 11:16 | 9.32119 | 90.44638 | 40850 ft | 488 kts | 116° |
| 2026-05-04 11:17 | 9.29221 | 90.50858 | 40851 ft | 488 kts | 116° |
| 2026-05-04 11:19 | 9.17608 | 90.75751 | 40849 ft | 490 kts | 116° |
| 2026-05-04 11:19 | 9.14692 | 90.81994 | 40847 ft | 491 kts | 116° |
| 2026-05-04 11:20 | 9.11774 | 90.88237 | 40843 ft | 491 kts | 116° |
| 2026-05-04 11:20 | 9.08849 | 90.94492 | 40847 ft | 491 kts | 116° |
| 2026-05-04 11:22 | 8.97190 | 91.19391 | 40848 ft | 490 kts | 116° |
| 2026-05-04 11:23 | 8.94272 | 91.25616 | 40847 ft | 490 kts | 116° |
| 2026-05-04 11:25 | 8.84069 | 91.47351 | 40846 ft | 488 kts | 116° |
| 2026-05-04 11:25 | 8.81159 | 91.53544 | 40846 ft | 487 kts | 116° |
| 2026-05-04 11:27 | 8.68125 | 91.81242 | 40846 ft | 484 kts | 116° |
| 2026-05-04 11:28 | 8.65229 | 91.87388 | 40845 ft | 483 kts | 116° |
| 2026-05-04 11:28 | 8.62332 | 91.93532 | 40846 ft | 483 kts | 116° |
| 2026-05-04 11:29 | 8.59456 | 91.99618 | 40845 ft | 483 kts | 116° |
| 2026-05-04 11:29 | 8.56655 | 92.05781 | 40847 ft | 482 kts | 114° |
| 2026-05-04 11:33 | 8.37538 | 92.49052 | 40846 ft | 482 kts | 114° |
| 2026-05-04 11:33 | 8.34794 | 92.55227 | 40848 ft | 482 kts | 114° |
| 2026-05-04 11:34 | 8.32046 | 92.61408 | 40846 ft | 482 kts | 114° |
| 2026-05-04 11:34 | 8.29319 | 92.67539 | 40844 ft | 482 kts | 114° |
| 2026-05-04 11:35 | 8.26567 | 92.73721 | 40847 ft | 482 kts | 114° |
| 2026-05-04 11:35 | 8.23823 | 92.79884 | 40847 ft | 482 kts | 114° |
| 2026-05-04 11:36 | 8.21070 | 92.86063 | 40845 ft | 482 kts | 114° |
| 2026-05-04 11:36 | 8.18322 | 92.92229 | 40847 ft | 482 kts | 114° |
| 2026-05-04 11:37 | 8.15568 | 92.98405 | 40844 ft | 482 kts | 114° |
| 2026-05-04 11:37 | 8.12820 | 93.04564 | 40849 ft | 482 kts | 114° |
| 2026-05-04 11:38 | 8.10068 | 93.10732 | 40846 ft | 482 kts | 114° |
| 2026-05-04 11:38 | 8.07333 | 93.16856 | 40849 ft | 482 kts | 114° |
| 2026-05-04 11:39 | 8.04578 | 93.23022 | 40844 ft | 482 kts | 114° |
| 2026-05-04 11:41 | 7.94926 | 93.44604 | 40846 ft | 482 kts | 114° |
| 2026-05-04 11:41 | 7.92168 | 93.50768 | 40845 ft | 482 kts | 114° |
| 2026-05-04 11:42 | 7.89426 | 93.56941 | 40843 ft | 482 kts | 114° |
| 2026-05-04 11:42 | 7.87150 | 93.62069 | 40845 ft | 482 kts | 114° |
| 2026-05-04 11:43 | 7.84396 | 93.68273 | 40845 ft | 482 kts | 114° |
| 2026-05-04 11:43 | 7.81649 | 93.74452 | 40845 ft | 482 kts | 114° |
| 2026-05-04 11:44 | 7.78926 | 93.80575 | 40847 ft | 481 kts | 114° |
| 2026-05-04 11:44 | 7.76182 | 93.86742 | 40848 ft | 481 kts | 114° |
| 2026-05-04 11:45 | 7.73442 | 93.92898 | 40846 ft | 480 kts | 114° |
| 2026-05-04 11:45 | 7.70705 | 93.99042 | 40836 ft | 480 kts | 114° |
| 2026-05-04 11:46 | 7.67987 | 94.05145 | 40851 ft | 479 kts | 114° |
| 2026-05-04 11:46 | 7.65255 | 94.11272 | 40838 ft | 479 kts | 114° |
| 2026-05-04 11:47 | 7.62521 | 94.17404 | 40851 ft | 479 kts | 114° |
| 2026-05-04 11:47 | 7.59789 | 94.23528 | 40837 ft | 479 kts | 114° |
| 2026-05-04 11:48 | 7.57055 | 94.29654 | 40855 ft | 478 kts | 114° |
| 2026-05-04 11:48 | 7.54323 | 94.35772 | 40852 ft | 478 kts | 114° |
| 2026-05-04 11:49 | 7.51605 | 94.41855 | 40841 ft | 479 kts | 114° |
| 2026-05-04 11:49 | 7.48760 | 94.47921 | 40853 ft | 479 kts | 116° |
| 2026-05-04 11:50 | 7.45781 | 94.53942 | 40840 ft | 479 kts | 116° |
| 2026-05-04 11:50 | 7.42813 | 94.59967 | 40842 ft | 479 kts | 116° |
| 2026-05-04 11:51 | 7.39874 | 94.65993 | 40855 ft | 479 kts | 116° |
| 2026-05-04 11:51 | 7.36963 | 94.71986 | 40841 ft | 479 kts | 116° |
| 2026-05-04 11:52 | 7.34030 | 94.78024 | 40843 ft | 479 kts | 116° |
| 2026-05-04 11:52 | 7.31097 | 94.84055 | 40855 ft | 479 kts | 116° |
| 2026-05-04 11:53 | 7.28155 | 94.90102 | 40841 ft | 480 kts | 116° |
| 2026-05-04 11:53 | 7.25218 | 94.96135 | 40846 ft | 480 kts | 116° |
| 2026-05-04 11:55 | 7.13458 | 95.20272 | 40856 ft | 480 kts | 116° |
| 2026-05-04 11:56 | 7.10515 | 95.26306 | 40845 ft | 480 kts | 116° |
| 2026-05-04 11:56 | 7.07567 | 95.32347 | 40849 ft | 480 kts | 116° |
| 2026-05-04 11:57 | 7.04638 | 95.38347 | 40861 ft | 480 kts | 116° |
| 2026-05-04 11:57 | 7.01689 | 95.44387 | 40845 ft | 480 kts | 116° |
| 2026-05-04 11:58 | 6.98735 | 95.50433 | 40860 ft | 480 kts | 116° |
| 2026-05-04 11:58 | 6.95787 | 95.56466 | 40847 ft | 480 kts | 116° |
| 2026-05-04 11:59 | 6.92841 | 95.62492 | 40845 ft | 480 kts | 116° |
| 2026-05-04 11:59 | 6.89893 | 95.68519 | 40861 ft | 480 kts | 116° |
| 2026-05-04 12:00 | 6.86965 | 95.74503 | 40849 ft | 479 kts | 116° |
| 2026-05-04 12:00 | 6.84022 | 95.80516 | 40846 ft | 479 kts | 116° |
| 2026-05-04 12:01 | 6.81077 | 95.86532 | 40861 ft | 479 kts | 116° |
| 2026-05-04 12:02 | 6.70783 | 96.07521 | 40856 ft | 478 kts | 116° |
| 2026-05-04 12:03 | 6.67841 | 96.13515 | 40844 ft | 478 kts | 116° |
| 2026-05-04 12:03 | 6.64907 | 96.19518 | 40859 ft | 478 kts | 116° |
| 2026-05-04 12:04 | 6.61966 | 96.25522 | 40859 ft | 478 kts | 116° |
| 2026-05-04 12:04 | 6.59019 | 96.31530 | 40845 ft | 478 kts | 116° |
| 2026-05-04 12:05 | 6.56093 | 96.37489 | 40859 ft | 478 kts | 116° |
| 2026-05-04 12:05 | 6.53147 | 96.43487 | 40860 ft | 478 kts | 116° |
| 2026-05-04 12:06 | 6.50368 | 96.49566 | 40861 ft | 478 kts | 108° |
| 2026-05-04 12:06 | 6.48353 | 96.55928 | 40851 ft | 477 kts | 106° |
| 2026-05-04 12:07 | 6.46481 | 96.62333 | 40864 ft | 477 kts | 105° |
| 2026-05-04 12:07 | 6.44626 | 96.68746 | 40851 ft | 477 kts | 106° |
| 2026-05-04 12:08 | 6.42769 | 96.75114 | 40861 ft | 477 kts | 106° |
| 2026-05-04 12:09 | 6.41523 | 96.79369 | 40860 ft | 477 kts | 106° |
| 2026-05-04 12:09 | 6.39059 | 96.87761 | 40859 ft | 477 kts | 106° |
| 2026-05-04 12:10 | 6.37176 | 96.94170 | 40863 ft | 477 kts | 106° |
| 2026-05-04 12:10 | 6.35293 | 97.00580 | 40860 ft | 477 kts | 106° |
| 2026-05-04 12:11 | 6.33416 | 97.06965 | 40858 ft | 476 kts | 106° |
| 2026-05-04 12:11 | 6.31550 | 97.13312 | 40861 ft | 476 kts | 106° |
| 2026-05-04 12:12 | 6.29669 | 97.19704 | 40859 ft | 476 kts | 106° |
| 2026-05-04 12:12 | 6.27790 | 97.26091 | 40861 ft | 476 kts | 106° |
| 2026-05-04 12:14 | 6.20276 | 97.51586 | 40859 ft | 476 kts | 106° |
| 2026-05-04 12:15 | 6.17980 | 97.57834 | 40860 ft | 477 kts | 117° |
| 2026-05-04 12:15 | 6.14218 | 97.63258 | 40866 ft | 478 kts | 128° |
| 2026-05-04 12:16 | 6.09893 | 97.68340 | 40859 ft | 478 kts | 130° |
| 2026-05-04 12:16 | 6.05483 | 97.73376 | 40863 ft | 478 kts | 130° |
| 2026-05-04 12:17 | 6.01105 | 97.78405 | 40864 ft | 478 kts | 130° |
| 2026-05-04 12:17 | 5.96745 | 97.83449 | 40863 ft | 478 kts | 130° |
| 2026-05-04 12:18 | 5.87973 | 97.93618 | 40863 ft | 477 kts | 130° |
| 2026-05-04 12:19 | 5.83618 | 97.98662 | 40860 ft | 477 kts | 130° |
| 2026-05-04 12:19 | 5.79292 | 98.03671 | 40865 ft | 477 kts | 130° |
| 2026-05-04 12:20 | 5.74938 | 98.08712 | 40852 ft | 477 kts | 130° |
| 2026-05-04 12:20 | 5.70584 | 98.13750 | 40862 ft | 477 kts | 130° |
| 2026-05-04 12:21 | 5.66237 | 98.18780 | 40864 ft | 477 kts | 130° |
| 2026-05-04 12:21 | 5.61886 | 98.23813 | 40866 ft | 477 kts | 130° |
| 2026-05-04 12:22 | 5.57565 | 98.28809 | 40870 ft | 477 kts | 130° |
| 2026-05-04 12:22 | 5.53217 | 98.33836 | 40872 ft | 476 kts | 129° |
| 2026-05-04 12:23 | 5.48870 | 98.38862 | 40872 ft | 476 kts | 129° |
| 2026-05-04 12:23 | 5.44527 | 98.43880 | 40853 ft | 476 kts | 129° |
| 2026-05-04 12:24 | 5.40186 | 98.48896 | 40872 ft | 476 kts | 129° |
| 2026-05-04 12:24 | 5.35841 | 98.53915 | 40875 ft | 476 kts | 129° |
| 2026-05-04 12:25 | 5.31492 | 98.58937 | 40874 ft | 476 kts | 129° |
| 2026-05-04 12:25 | 5.27138 | 98.63963 | 40863 ft | 477 kts | 129° |
| 2026-05-04 12:26 | 5.22815 | 98.68953 | 40875 ft | 477 kts | 129° |
| 2026-05-04 12:26 | 5.18462 | 98.73976 | 40878 ft | 477 kts | 129° |
| 2026-05-04 12:27 | 5.14104 | 98.79004 | 40861 ft | 477 kts | 130° |
| 2026-05-04 12:27 | 5.09748 | 98.84028 | 40879 ft | 477 kts | 129° |
| 2026-05-04 12:28 | 5.05417 | 98.89023 | 40879 ft | 477 kts | 130° |
| 2026-05-04 12:28 | 5.01054 | 98.94053 | 40864 ft | 477 kts | 130° |
| 2026-05-04 12:29 | 4.96702 | 98.99070 | 40859 ft | 477 kts | 130° |
| 2026-05-04 12:29 | 4.92341 | 99.04095 | 40882 ft | 477 kts | 130° |
| 2026-05-04 12:30 | 4.87983 | 99.09116 | 40866 ft | 477 kts | 130° |
| 2026-05-04 12:30 | 4.83646 | 99.14112 | 40879 ft | 478 kts | 130° |
| 2026-05-04 12:31 | 4.79280 | 99.19140 | 40881 ft | 478 kts | 130° |
| 2026-05-04 12:31 | 4.74910 | 99.24172 | 40865 ft | 478 kts | 130° |
| 2026-05-04 12:32 | 4.68352 | 99.31720 | 40875 ft | 479 kts | 130° |
| 2026-05-04 12:33 | 4.63974 | 99.36759 | 40878 ft | 479 kts | 130° |
| 2026-05-04 12:33 | 4.60338 | 99.40943 | 40878 ft | 478 kts | 130° |
| 2026-05-04 12:34 | 4.55969 | 99.45969 | 40870 ft | 478 kts | 130° |
| 2026-05-04 12:34 | 4.51597 | 99.50997 | 40876 ft | 478 kts | 130° |
| 2026-05-04 12:35 | 4.47272 | 99.56054 | 40876 ft | 478 kts | 128° |
| 2026-05-04 12:35 | 4.43139 | 99.61266 | 40879 ft | 477 kts | 127° |
| 2026-05-04 12:36 | 4.39038 | 99.66496 | 40880 ft | 477 kts | 127° |
| 2026-05-04 12:36 | 4.34910 | 99.71699 | 40878 ft | 477 kts | 128° |
| 2026-05-04 12:37 | 4.30763 | 99.76890 | 40874 ft | 477 kts | 128° |
| 2026-05-04 12:37 | 4.26605 | 99.82085 | 40880 ft | 478 kts | 128° |
| 2026-05-04 12:38 | 4.22471 | 99.87250 | 40880 ft | 478 kts | 128° |
| 2026-05-04 12:38 | 4.18311 | 99.92451 | 40884 ft | 478 kts | 128° |
| 2026-05-04 12:39 | 4.14146 | 99.97656 | 40878 ft | 479 kts | 128° |
| 2026-05-04 12:39 | 4.09980 | 100.02862 | 40882 ft | 479 kts | 128° |
| 2026-05-04 12:40 | 4.05804 | 100.08079 | 40881 ft | 479 kts | 128° |
| 2026-05-04 12:40 | 4.01632 | 100.13291 | 40877 ft | 480 kts | 128° |
| 2026-05-04 12:41 | 3.97456 | 100.18506 | 40882 ft | 480 kts | 128° |
| 2026-05-04 12:41 | 3.93298 | 100.23697 | 40881 ft | 480 kts | 128° |
| 2026-05-04 12:42 | 3.89111 | 100.28924 | 40882 ft | 480 kts | 128° |
| 2026-05-04 12:42 | 3.84928 | 100.34145 | 40881 ft | 481 kts | 128° |
| 2026-05-04 12:43 | 3.80738 | 100.39375 | 40880 ft | 481 kts | 128° |
| 2026-05-04 12:43 | 3.76551 | 100.44598 | 40881 ft | 481 kts | 128° |
| 2026-05-04 12:44 | 3.72387 | 100.49793 | 40884 ft | 481 kts | 128° |
| 2026-05-04 12:44 | 3.68198 | 100.55019 | 40883 ft | 481 kts | 128° |
| 2026-05-04 12:45 | 3.63999 | 100.60256 | 40885 ft | 481 kts | 128° |
| 2026-05-04 12:45 | 3.59806 | 100.65485 | 40882 ft | 482 kts | 128° |
| 2026-05-04 12:46 | 3.55610 | 100.70716 | 40883 ft | 482 kts | 128° |
| 2026-05-04 12:46 | 3.51413 | 100.75946 | 40881 ft | 482 kts | 128° |
| 2026-05-04 12:47 | 3.47212 | 100.81183 | 40882 ft | 482 kts | 128° |
| 2026-05-04 12:47 | 3.43033 | 100.86390 | 40884 ft | 483 kts | 128° |
| 2026-05-04 12:48 | 3.38827 | 100.91630 | 40885 ft | 483 kts | 128° |
| 2026-05-04 12:48 | 3.34644 | 100.96842 | 40886 ft | 483 kts | 128° |
| 2026-05-04 12:49 | 3.30427 | 101.02089 | 40886 ft | 483 kts | 128° |
| 2026-05-04 12:49 | 3.26210 | 101.07325 | 40890 ft | 483 kts | 128° |
| 2026-05-04 12:50 | 3.21988 | 101.12570 | 40889 ft | 483 kts | 128° |
| 2026-05-04 12:50 | 3.17770 | 101.17810 | 40888 ft | 484 kts | 128° |
| 2026-05-04 12:51 | 3.13569 | 101.23033 | 40884 ft | 484 kts | 128° |
| 2026-05-04 12:51 | 3.09332 | 101.28279 | 40874 ft | 484 kts | 128° |
| 2026-05-04 12:52 | 3.05081 | 101.33517 | 40870 ft | 484 kts | 128° |
| 2026-05-04 12:52 | 3.00831 | 101.38757 | 40865 ft | 485 kts | 128° |
| 2026-05-04 12:53 | 2.96581 | 101.44005 | 40867 ft | 485 kts | 128° |
| 2026-05-04 12:53 | 2.92335 | 101.49247 | 40859 ft | 485 kts | 128° |
| 2026-05-04 12:54 | 2.88083 | 101.54496 | 40861 ft | 485 kts | 128° |
| 2026-05-04 12:54 | 2.83851 | 101.59720 | 40857 ft | 486 kts | 128° |
| 2026-05-04 12:55 | 2.79596 | 101.64972 | 40856 ft | 486 kts | 128° |
| 2026-05-04 12:55 | 2.75339 | 101.70225 | 40857 ft | 486 kts | 128° |
| 2026-05-04 12:56 | 2.70480 | 101.74903 | 40857 ft | 487 kts | 144° |
| 2026-05-04 12:56 | 2.64831 | 101.78656 | 40856 ft | 488 kts | 147° |
| 2026-05-04 12:57 | 2.59076 | 101.82230 | 40858 ft | 487 kts | 147° |
| 2026-05-04 12:57 | 2.53336 | 101.85776 | 40862 ft | 487 kts | 147° |
| 2026-05-04 12:58 | 2.47583 | 101.89359 | 40873 ft | 487 kts | 147° |
| 2026-05-04 12:58 | 2.41844 | 101.92949 | 40871 ft | 486 kts | 147° |
| 2026-05-04 12:59 | 2.36108 | 101.96541 | 40875 ft | 486 kts | 147° |
| 2026-05-04 12:59 | 2.30367 | 102.00134 | 40884 ft | 486 kts | 147° |
| 2026-05-04 13:00 | 2.24598 | 102.03670 | 40888 ft | 486 kts | 148° |
| 2026-05-04 13:00 | 2.18987 | 102.07371 | 40891 ft | 485 kts | 139° |
| 2026-05-04 13:01 | 2.14585 | 102.12409 | 40893 ft | 482 kts | 120° |
| 2026-05-04 13:01 | 2.11301 | 102.18250 | 40893 ft | 482 kts | 117° |
| 2026-05-04 13:02 | 2.08211 | 102.24206 | 40899 ft | 482 kts | 116° |
| 2026-05-04 13:02 | 2.05120 | 102.30161 | 40901 ft | 482 kts | 117° |
| 2026-05-04 13:03 | 2.02001 | 102.36098 | 40896 ft | 482 kts | 117° |
| 2026-05-04 13:03 | 2.00433 | 102.39066 | 40794 ft | 482 kts | 117° |
| 2026-05-04 13:03 | 1.98889 | 102.41987 | 40311 ft | 480 kts | 117° |
| 2026-05-04 13:03 | 1.97327 | 102.44940 | 39719 ft | 480 kts | 117° |
| 2026-05-04 13:04 | 1.95759 | 102.47889 | 39130 ft | 480 kts | 117° |
| 2026-05-04 13:04 | 1.94179 | 102.50842 | 38425 ft | 482 kts | 117° |
| 2026-05-04 13:04 | 1.92592 | 102.53798 | 37630 ft | 484 kts | 117° |
| 2026-05-04 13:04 | 1.90999 | 102.56770 | 36862 ft | 486 kts | 117° |
| 2026-05-04 13:05 | 1.89400 | 102.59753 | 36118 ft | 487 kts | 117° |
| 2026-05-04 13:05 | 1.87798 | 102.62746 | 35412 ft | 488 kts | 117° |
| 2026-05-04 13:05 | 1.86214 | 102.65706 | 34720 ft | 488 kts | 117° |
| 2026-05-04 13:05 | 1.84610 | 102.68706 | 34036 ft | 488 kts | 117° |
| 2026-05-04 13:06 | 1.83012 | 102.71694 | 33292 ft | 488 kts | 117° |
| 2026-05-04 13:06 | 1.81411 | 102.74689 | 32548 ft | 487 kts | 117° |
| 2026-05-04 13:06 | 1.79811 | 102.77680 | 31820 ft | 487 kts | 117° |
| 2026-05-04 13:06 | 1.78217 | 102.80662 | 31104 ft | 486 kts | 117° |
| 2026-05-04 13:07 | 1.76625 | 102.83638 | 30422 ft | 485 kts | 117° |
| 2026-05-04 13:07 | 1.75007 | 102.86596 | 29700 ft | 484 kts | 121° |
| 2026-05-04 13:07 | 1.72992 | 102.89288 | 28913 ft | 484 kts | 133° |
| 2026-05-04 13:07 | 1.70492 | 102.91539 | 28156 ft | 483 kts | 140° |
| 2026-05-04 13:08 | 1.67887 | 102.93587 | 27420 ft | 482 kts | 141° |
| 2026-05-04 13:08 | 1.65232 | 102.95630 | 26692 ft | 481 kts | 141° |
| 2026-05-04 13:08 | 1.62572 | 102.97670 | 25982 ft | 476 kts | 141° |
| 2026-05-04 13:08 | 1.60014 | 102.99630 | 25308 ft | 452 kts | 141° |
| 2026-05-04 13:09 | 1.57532 | 103.01532 | 24647 ft | 450 kts | 141° |
| 2026-05-04 13:09 | 1.55042 | 103.03441 | 23986 ft | 450 kts | 141° |
| 2026-05-04 13:09 | 1.52547 | 103.05355 | 23316 ft | 450 kts | 141° |
| 2026-05-04 13:09 | 1.50091 | 103.07238 | 22552 ft | 450 kts | 141° |
| 2026-05-04 13:10 | 1.47606 | 103.09142 | 21802 ft | 449 kts | 141° |
| 2026-05-04 13:10 | 1.45126 | 103.11044 | 21066 ft | 448 kts | 141° |
| 2026-05-04 13:10 | 1.42660 | 103.12934 | 20363 ft | 446 kts | 141° |
| 2026-05-04 13:10 | 1.40201 | 103.14821 | 19655 ft | 443 kts | 141° |
| 2026-05-04 13:11 | 1.37865 | 103.16828 | 18975 ft | 440 kts | 136° |
| 2026-05-04 13:11 | 1.35688 | 103.18868 | 18312 ft | 422 kts | 135° |
| 2026-05-04 13:11 | 1.33627 | 103.20834 | 17595 ft | 398 kts | 135° |
| 2026-05-04 13:11 | 1.31681 | 103.22707 | 16861 ft | 380 kts | 134° |
| 2026-05-04 13:12 | 1.29775 | 103.24551 | 16147 ft | 383 kts | 135° |
| 2026-05-04 13:12 | 1.27851 | 103.26417 | 15426 ft | 386 kts | 135° |
| 2026-05-04 13:12 | 1.25932 | 103.28279 | 14714 ft | 377 kts | 135° |
| 2026-05-04 13:12 | 1.24098 | 103.30059 | 14053 ft | 359 kts | 135° |
| 2026-05-04 13:13 | 1.22336 | 103.31769 | 13359 ft | 347 kts | 135° |
| 2026-05-04 13:13 | 1.20604 | 103.33451 | 12614 ft | 350 kts | 135° |
| 2026-05-04 13:13 | 1.18864 | 103.35141 | 11886 ft | 356 kts | 135° |
| 2026-05-04 13:13 | 1.17080 | 103.36874 | 11161 ft | 360 kts | 135° |
| 2026-05-04 13:14 | 1.15273 | 103.38629 | 10504 ft | 362 kts | 135° |
| 2026-05-04 13:14 | 1.13478 | 103.40371 | 10133 ft | 355 kts | 135° |
| 2026-05-04 13:14 | 1.11740 | 103.42058 | 10032 ft | 340 kts | 135° |
| 2026-05-04 13:14 | 1.10091 | 103.43659 | 10023 ft | 322 kts | 135° |
| 2026-05-04 13:15 | 1.08524 | 103.45181 | 10020 ft | 306 kts | 135° |
| 2026-05-04 13:15 | 1.07019 | 103.46643 | 10018 ft | 298 kts | 135° |
| 2026-05-04 13:15 | 1.05551 | 103.48068 | 10022 ft | 298 kts | 135° |
| 2026-05-04 13:15 | 1.04093 | 103.49539 | 9974 ft | 298 kts | 131° |
| 2026-05-04 13:16 | 1.02961 | 103.51255 | 9656 ft | 296 kts | 114° |
| 2026-05-04 13:16 | 1.02496 | 103.53259 | 9155 ft | 297 kts | 90° |
| 2026-05-04 13:16 | 1.02722 | 103.55323 | 8664 ft | 299 kts | 79° |
| 2026-05-04 13:16 | 1.03122 | 103.57371 | 8161 ft | 301 kts | 78° |
| 2026-05-04 13:17 | 1.03537 | 103.59435 | 7682 ft | 303 kts | 78° |
| 2026-05-04 13:17 | 1.03946 | 103.61486 | 7216 ft | 304 kts | 78° |
| 2026-05-04 13:17 | 1.04356 | 103.63564 | 6751 ft | 305 kts | 78° |
| 2026-05-04 13:17 | 1.04766 | 103.65652 | 6290 ft | 306 kts | 78° |
| 2026-05-04 13:18 | 1.05175 | 103.67742 | 5799 ft | 306 kts | 78° |
| 2026-05-04 13:18 | 1.05584 | 103.69835 | 5315 ft | 306 kts | 78° |
| 2026-05-04 13:18 | 1.05993 | 103.71929 | 4830 ft | 306 kts | 78° |
| 2026-05-04 13:18 | 1.06393 | 103.73986 | 4352 ft | 299 kts | 78° |
| 2026-05-04 13:19 | 1.06778 | 103.75970 | 3881 ft | 282 kts | 78° |
| 2026-05-04 13:19 | 1.07050 | 103.77240 | 3565 ft | 272 kts | 75° |
| 2026-05-04 13:19 | 1.08178 | 103.79355 | 3114 ft | 249 kts | 52° |
| 2026-05-04 13:19 | 1.09200 | 103.80653 | 3037 ft | 226 kts | 50° |
| 2026-05-04 13:20 | 1.10166 | 103.81840 | 3057 ft | 217 kts | 50° |
| 2026-05-04 13:20 | 1.10808 | 103.82628 | 3058 ft | 216 kts | 50° |
| 2026-05-04 13:20 | 1.11740 | 103.83772 | 3043 ft | 215 kts | 50° |
| 2026-05-04 13:20 | 1.12691 | 103.84938 | 3033 ft | 216 kts | 50° |
| 2026-05-04 13:21 | 1.13646 | 103.86108 | 3035 ft | 216 kts | 50° |
| 2026-05-04 13:21 | 1.14598 | 103.87273 | 3037 ft | 216 kts | 50° |
| 2026-05-04 13:21 | 1.15551 | 103.88437 | 3038 ft | 216 kts | 50° |
| 2026-05-04 13:21 | 1.16545 | 103.89546 | 3033 ft | 216 kts | 40° |
| 2026-05-04 13:22 | 1.17771 | 103.90308 | 3051 ft | 199 kts | 24° |
| 2026-05-04 13:22 | 1.19023 | 103.90843 | 3052 ft | 193 kts | 22° |
| 2026-05-04 13:22 | 1.20248 | 103.91365 | 3033 ft | 187 kts | 22° |
| 2026-05-04 13:22 | 1.21422 | 103.91879 | 2851 ft | 182 kts | 23° |
| 2026-05-04 13:23 | 1.22572 | 103.92385 | 2624 ft | 180 kts | 22° |
| 2026-05-04 13:23 | 1.23685 | 103.92865 | 2379 ft | 173 kts | 22° |
| 2026-05-04 13:23 | 1.24759 | 103.93328 | 2148 ft | 163 kts | 23° |
| 2026-05-04 13:23 | 1.25766 | 103.93764 | 1939 ft | 152 kts | 23° |
| 2026-05-04 13:24 | 1.26719 | 103.94175 | 1758 ft | 147 kts | 23° |
| 2026-05-04 13:24 | 1.27662 | 103.94583 | 1569 ft | 147 kts | 24° |
| 2026-05-04 13:24 | 1.28604 | 103.94990 | 1345 ft | 148 kts | 24° |
| 2026-05-04 13:25 | 1.30489 | 103.95804 | 966 ft | 147 kts | 23° |
| 2026-05-04 13:25 | 1.31399 | 103.96233 | 784 ft | 146 kts | 26° |
| 2026-05-04 13:25 | 1.32310 | 103.96671 | 582 ft | 145 kts | 24° |
| 2026-05-04 13:25 | 1.33233 | 103.97069 | 405 ft | 144 kts | 20° |
| 2026-05-04 13:26 | 1.34167 | 103.97438 | 250 ft | 143 kts | 23° |
| 2026-05-04 13:26 | 1.35083 | 103.97833 | 86 ft | 142 kts | 21° |
| 2026-05-04 13:26 | 1.35950 | 103.98191 | 33 ft | 122 kts | 22° |
| 2026-05-04 13:26 | 1.36508 | 103.98424 | 32 ft | 47 kts | 25° |
| 2026-05-04 13:27 | 1.36711 | 103.98578 | 31 ft | 33 kts | 50° |
| 2026-05-04 13:27 | 1.36825 | 103.98729 | 31 ft | 20 kts | 56° |
| 2026-05-04 13:27 | 1.36814 | 103.98855 | 30 ft | 19 kts | 112° |
| 2026-05-04 13:27 | 1.36765 | 103.98974 | 30 ft | 19 kts | 113° |
| 2026-05-04 13:28 | 1.36722 | 103.99072 | 30 ft | 17 kts | 114° |
| 2026-05-04 13:28 | 1.36673 | 103.99185 | 30 ft | 13 kts | 113° |
| 2026-05-04 13:28 | 1.36634 | 103.99279 | 31 ft | 14 kts | 113° |
| 2026-05-04 13:28 | 1.36621 | 103.99306 | 33 ft | 4 kts | 114° |
| 2026-05-04 13:29 | 1.36608 | 103.99323 | 36 ft | 2 kts | 143° |
| 2026-05-04 13:29 | 1.36566 | 103.99318 | 35 ft | 12 kts | 212° |
| 2026-05-04 13:29 | 1.36520 | 103.99260 | 31 ft | 9 kts | 233° |
| 2026-05-04 13:29 | 1.36474 | 103.99212 | 30 ft | 9 kts | 204° |
| 2026-05-04 13:30 | 1.36423 | 103.99236 | 30 ft | 11 kts | 139° |
| 2026-05-04 13:30 | 1.36414 | 103.99244 | 30 ft | 0 kts | 139° |